sensor_id;sensor_type;location;lat;lon;timestamp;pressure;altitude;pressure_sealevel;temperature;humidity
8641;BME280;4358;42.100;25.222;2023-03-26T00:01:25;99264.75;;;12.88;100.00
8641;BME280;4358;42.100;25.222;2023-03-26T00:03:53;99270.28;;;12.96;100.00
8641;BME280;4358;42.100;25.222;2023-03-26T00:06:23;99261.34;;;13.06;100.00
8641;BME280;4358;42.100;25.222;2023-03-26T00:08:52;99271.88;;;13.08;100.00
8641;BME280;4358;42.100;25.222;2023-03-26T00:11:21;99271.34;;;13.14;100.00
8641;BME280;4358;42.100;25.222;2023-03-26T00:13:50;99278.88;;;13.09;100.00
8641;BME280;4358;42.100;25.222;2023-03-26T00:16:19;99278.69;;;12.70;100.00
8641;BME280;4358;42.100;25.222;2023-03-26T00:18:46;99273.00;;;12.54;100.00
8641;BME280;4358;42.100;25.222;2023-03-26T00:21:15;99276.22;;;12.37;100.00
8641;BME280;4358;42.100;25.222;2023-03-26T00:23:43;99281.75;;;12.24;100.00
8641;BME280;4358;42.100;25.222;2023-03-26T00:26:10;99280.34;;;12.30;100.00
8641;BME280;4358;42.100;25.222;2023-03-26T00:28:37;99285.75;;;12.19;100.00
8641;BME280;4358;42.100;25.222;2023-03-26T00:31:08;99282.06;;;11.99;100.00
8641;BME280;4358;42.100;25.222;2023-03-26T00:33:35;99281.75;;;11.93;100.00
8641;BME280;4358;42.100;25.222;2023-03-26T00:36:04;99284.66;;;11.67;100.00
8641;BME280;4358;42.100;25.222;2023-03-26T00:38:34;99289.28;;;11.54;100.00
8641;BME280;4358;42.100;25.222;2023-03-26T00:41:04;99296.31;;;11.44;100.00
8641;BME280;4358;42.100;25.222;2023-03-26T00:43:33;99300.91;;;11.31;100.00
8641;BME280;4358;42.100;25.222;2023-03-26T00:46:01;99297.28;;;11.32;100.00
8641;BME280;4358;42.100;25.222;2023-03-26T00:48:29;99291.28;;;11.30;100.00
8641;BME280;4358;42.100;25.222;2023-03-26T00:50:58;99297.06;;;11.35;100.00
8641;BME280;4358;42.100;25.222;2023-03-26T00:53:25;99295.13;;;11.37;100.00
8641;BME280;4358;42.100;25.222;2023-03-26T00:55:52;99283.53;;;11.38;100.00
8641;BME280;4358;42.100;25.222;2023-03-26T00:58:25;99274.25;;;11.21;100.00
8641;BME280;4358;42.100;25.222;2023-03-26T01:00:54;99287.66;;;11.20;100.00
8641;BME280;4358;42.100;25.222;2023-03-26T01:03:22;99294.78;;;11.08;100.00
8641;BME280;4358;42.100;25.222;2023-03-26T01:05:56;99298.28;;;11.09;100.00
8641;BME280;4358;42.100;25.222;2023-03-26T01:08:31;99299.25;;;11.08;100.00
8641;BME280;4358;42.100;25.222;2023-03-26T01:11:01;99298.50;;;10.83;100.00
8641;BME280;4358;42.100;25.222;2023-03-26T01:13:35;99303.69;;;10.85;100.00
8641;BME280;4358;42.100;25.222;2023-03-26T01:16:05;99301.38;;;10.80;100.00
8641;BME280;4358;42.100;25.222;2023-03-26T01:18:34;99317.09;;;10.83;100.00
8641;BME280;4358;42.100;25.222;2023-03-26T01:21:08;99321.53;;;10.94;100.00
8641;BME280;4358;42.100;25.222;2023-03-26T01:23:43;99333.16;;;10.93;100.00
8641;BME280;4358;42.100;25.222;2023-03-26T01:26:23;99337.25;;;10.97;100.00
8641;BME280;4358;42.100;25.222;2023-03-26T01:28:55;99340.97;;;10.94;100.00
8641;BME280;4358;42.100;25.222;2023-03-26T01:31:27;99335.66;;;10.72;100.00
8641;BME280;4358;42.100;25.222;2023-03-26T01:34:06;99336.06;;;10.55;100.00
8641;BME280;4358;42.100;25.222;2023-03-26T01:36:41;99341.13;;;10.58;100.00
8641;BME280;4358;42.100;25.222;2023-03-26T01:39:15;99336.09;;;10.66;100.00
8641;BME280;4358;42.100;25.222;2023-03-26T01:41:50;99323.25;;;10.49;100.00
8641;BME280;4358;42.100;25.222;2023-03-26T01:44:27;99338.72;;;10.55;100.00
8641;BME280;4358;42.100;25.222;2023-03-26T01:46:58;99340.63;;;10.53;100.00
8641;BME280;4358;42.100;25.222;2023-03-26T01:49:26;99333.78;;;10.50;100.00
8641;BME280;4358;42.100;25.222;2023-03-26T01:51:54;99333.88;;;10.49;100.00
8641;BME280;4358;42.100;25.222;2023-03-26T01:54:24;99343.72;;;10.71;100.00
8641;BME280;4358;42.100;25.222;2023-03-26T01:57:01;99354.94;;;10.74;100.00
8641;BME280;4358;42.100;25.222;2023-03-26T01:59:49;99379.44;;;10.78;100.00
8641;BME280;4358;42.100;25.222;2023-03-26T02:02:23;99375.09;;;10.77;100.00
8641;BME280;4358;42.100;25.222;2023-03-26T02:04:54;99370.78;;;10.87;100.00
8641;BME280;4358;42.100;25.222;2023-03-26T02:07:25;99374.63;;;10.94;100.00
8641;BME280;4358;42.100;25.222;2023-03-26T02:10:02;99382.97;;;11.00;100.00
8641;BME280;4358;42.100;25.222;2023-03-26T02:12:35;99369.25;;;11.07;100.00
8641;BME280;4358;42.100;25.222;2023-03-26T02:15:04;99375.88;;;11.12;100.00
8641;BME280;4358;42.100;25.222;2023-03-26T02:17:31;99382.28;;;11.21;100.00
8641;BME280;4358;42.100;25.222;2023-03-26T02:19:58;99380.59;;;11.31;100.00
8641;BME280;4358;42.100;25.222;2023-03-26T02:22:30;99382.28;;;11.32;100.00
8641;BME280;4358;42.100;25.222;2023-03-26T02:24:57;99381.34;;;11.44;100.00
8641;BME280;4358;42.100;25.222;2023-03-26T02:27:23;99377.25;;;11.51;100.00
8641;BME280;4358;42.100;25.222;2023-03-26T02:29:52;99377.72;;;11.56;100.00
8641;BME280;4358;42.100;25.222;2023-03-26T02:32:18;99369.25;;;11.62;100.00
8641;BME280;4358;42.100;25.222;2023-03-26T02:34:45;99365.25;;;11.68;100.00
8641;BME280;4358;42.100;25.222;2023-03-26T02:37:12;99358.88;;;11.70;100.00
8641;BME280;4358;42.100;25.222;2023-03-26T02:39:39;99363.44;;;11.68;100.00
8641;BME280;4358;42.100;25.222;2023-03-26T02:42:06;99366.84;;;11.70;100.00
8641;BME280;4358;42.100;25.222;2023-03-26T02:44:33;99361.53;;;11.70;100.00
8641;BME280;4358;42.100;25.222;2023-03-26T02:47:01;99363.09;;;11.73;100.00
8641;BME280;4358;42.100;25.222;2023-03-26T02:49:28;99361.91;;;11.77;100.00
8641;BME280;4358;42.100;25.222;2023-03-26T02:51:55;99378.94;;;11.85;100.00
8641;BME280;4358;42.100;25.222;2023-03-26T02:54:22;99378.56;;;11.90;100.00
8641;BME280;4358;42.100;25.222;2023-03-26T02:56:49;99380.84;;;11.95;100.00
8641;BME280;4358;42.100;25.222;2023-03-26T02:59:16;99382.16;;;12.00;100.00
8641;BME280;4358;42.100;25.222;2023-03-26T03:01:43;99387.09;;;12.05;100.00
8641;BME280;4358;42.100;25.222;2023-03-26T03:04:12;99386.41;;;12.03;100.00
8641;BME280;4358;42.100;25.222;2023-03-26T03:06:39;99393.38;;;12.04;100.00
8641;BME280;4358;42.100;25.222;2023-03-26T03:09:07;99394.47;;;12.12;100.00
8641;BME280;4358;42.100;25.222;2023-03-26T03:11:34;99383.19;;;12.20;100.00
8641;BME280;4358;42.100;25.222;2023-03-26T03:14:01;99390.84;;;12.13;100.00
8641;BME280;4358;42.100;25.222;2023-03-26T03:16:28;99395.56;;;12.10;100.00
8641;BME280;4358;42.100;25.222;2023-03-26T03:18:55;99399.41;;;12.17;100.00
8641;BME280;4358;42.100;25.222;2023-03-26T03:21:24;99392.88;;;12.21;100.00
8641;BME280;4358;42.100;25.222;2023-03-26T03:23:52;99396.75;;;12.17;100.00
8641;BME280;4358;42.100;25.222;2023-03-26T03:26:21;99400.28;;;12.06;100.00
8641;BME280;4358;42.100;25.222;2023-03-26T03:28:52;99390.03;;;12.02;100.00
8641;BME280;4358;42.100;25.222;2023-03-26T03:31:20;99396.03;;;12.04;100.00
8641;BME280;4358;42.100;25.222;2023-03-26T03:33:47;99396.03;;;12.04;100.00
8641;BME280;4358;42.100;25.222;2023-03-26T03:36:15;99391.38;;;11.96;100.00
8641;BME280;4358;42.100;25.222;2023-03-26T03:38:44;99401.63;;;12.01;100.00
8641;BME280;4358;42.100;25.222;2023-03-26T03:41:11;99393.44;;;11.93;100.00
8641;BME280;4358;42.100;25.222;2023-03-26T03:43:38;99401.75;;;11.88;100.00
8641;BME280;4358;42.100;25.222;2023-03-26T03:46:05;99406.25;;;11.87;100.00
8641;BME280;4358;42.100;25.222;2023-03-26T03:48:32;99413.00;;;12.03;100.00
8641;BME280;4358;42.100;25.222;2023-03-26T03:51:02;99417.56;;;12.12;100.00
8641;BME280;4358;42.100;25.222;2023-03-26T03:53:30;99414.06;;;12.11;100.00
8641;BME280;4358;42.100;25.222;2023-03-26T03:56:03;99429.16;;;12.11;100.00
8641;BME280;4358;42.100;25.222;2023-03-26T03:58:35;99438.25;;;12.19;100.00
8641;BME280;4358;42.100;25.222;2023-03-26T04:01:02;99433.72;;;12.20;100.00
8641;BME280;4358;42.100;25.222;2023-03-26T04:03:29;99434.25;;;12.14;100.00
8641;BME280;4358;42.100;25.222;2023-03-26T04:05:56;99435.06;;;12.14;100.00
8641;BME280;4358;42.100;25.222;2023-03-26T04:08:23;99447.41;;;12.15;100.00
8641;BME280;4358;42.100;25.222;2023-03-26T04:10:50;99445.84;;;12.24;100.00
8641;BME280;4358;42.100;25.222;2023-03-26T04:13:18;99447.66;;;12.23;100.00
8641;BME280;4358;42.100;25.222;2023-03-26T04:15:46;99450.31;;;12.23;100.00
8641;BME280;4358;42.100;25.222;2023-03-26T04:18:12;99455.00;;;12.20;100.00
8641;BME280;4358;42.100;25.222;2023-03-26T04:20:41;99456.00;;;12.19;100.00
8641;BME280;4358;42.100;25.222;2023-03-26T04:23:12;99476.91;;;12.23;100.00
8641;BME280;4358;42.100;25.222;2023-03-26T04:25:39;99469.41;;;12.28;100.00
8641;BME280;4358;42.100;25.222;2023-03-26T04:28:07;99458.41;;;12.22;100.00
8641;BME280;4358;42.100;25.222;2023-03-26T04:30:37;99474.59;;;12.30;100.00
8641;BME280;4358;42.100;25.222;2023-03-26T04:33:09;99474.34;;;12.33;100.00
8641;BME280;4358;42.100;25.222;2023-03-26T04:35:40;99485.84;;;12.34;100.00
8641;BME280;4358;42.100;25.222;2023-03-26T04:38:10;99478.97;;;12.20;100.00
8641;BME280;4358;42.100;25.222;2023-03-26T04:40:37;99481.16;;;12.15;100.00
8641;BME280;4358;42.100;25.222;2023-03-26T04:43:04;99490.59;;;12.08;100.00
8641;BME280;4358;42.100;25.222;2023-03-26T04:45:31;99491.78;;;12.15;100.00
8641;BME280;4358;42.100;25.222;2023-03-26T04:47:59;99497.84;;;12.17;100.00
8641;BME280;4358;42.100;25.222;2023-03-26T04:50:26;99490.97;;;12.03;100.00
8641;BME280;4358;42.100;25.222;2023-03-26T04:52:54;99495.44;;;12.03;100.00
8641;BME280;4358;42.100;25.222;2023-03-26T04:55:24;99503.63;;;11.88;100.00
8641;BME280;4358;42.100;25.222;2023-03-26T04:57:56;99492.03;;;11.78;100.00
8641;BME280;4358;42.100;25.222;2023-03-26T05:00:27;99508.38;;;11.85;100.00
8641;BME280;4358;42.100;25.222;2023-03-26T05:02:55;99507.50;;;11.84;100.00
8641;BME280;4358;42.100;25.222;2023-03-26T05:05:26;99516.59;;;11.93;100.00
8641;BME280;4358;42.100;25.222;2023-03-26T05:07:55;99524.22;;;11.98;100.00
8641;BME280;4358;42.100;25.222;2023-03-26T05:10:22;99525.28;;;12.06;100.00
8641;BME280;4358;42.100;25.222;2023-03-26T05:12:49;99534.13;;;12.07;100.00
8641;BME280;4358;42.100;25.222;2023-03-26T05:15:18;99543.31;;;12.14;100.00
8641;BME280;4358;42.100;25.222;2023-03-26T05:17:45;99548.59;;;12.25;100.00
8641;BME280;4358;42.100;25.222;2023-03-26T05:20:17;99547.28;;;12.30;100.00
8641;BME280;4358;42.100;25.222;2023-03-26T05:22:47;99544.88;;;12.27;100.00
8641;BME280;4358;42.100;25.222;2023-03-26T05:25:15;99552.97;;;12.37;100.00
8641;BME280;4358;42.100;25.222;2023-03-26T05:27:42;99550.03;;;12.51;100.00
8641;BME280;4358;42.100;25.222;2023-03-26T05:30:12;99559.72;;;12.63;100.00
8641;BME280;4358;42.100;25.222;2023-03-26T05:32:40;99581.00;;;12.74;100.00
8641;BME280;4358;42.100;25.222;2023-03-26T05:35:07;99578.06;;;12.78;100.00
8641;BME280;4358;42.100;25.222;2023-03-26T05:37:35;99576.03;;;12.81;100.00
8641;BME280;4358;42.100;25.222;2023-03-26T05:40:06;99579.84;;;12.88;100.00
8641;BME280;4358;42.100;25.222;2023-03-26T05:42:37;99579.38;;;12.94;100.00
8641;BME280;4358;42.100;25.222;2023-03-26T05:45:05;99589.91;;;12.96;100.00
8641;BME280;4358;42.100;25.222;2023-03-26T05:47:32;99584.81;;;12.93;100.00
8641;BME280;4358;42.100;25.222;2023-03-26T05:49:59;99582.00;;;13.05;100.00
8641;BME280;4358;42.100;25.222;2023-03-26T05:52:27;99587.31;;;13.17;100.00
8641;BME280;4358;42.100;25.222;2023-03-26T05:54:54;99592.28;;;13.21;100.00
8641;BME280;4358;42.100;25.222;2023-03-26T05:57:22;99609.31;;;13.30;100.00
8641;BME280;4358;42.100;25.222;2023-03-26T05:59:53;99597.06;;;13.38;100.00
8641;BME280;4358;42.100;25.222;2023-03-26T06:02:21;99607.75;;;13.59;100.00
8641;BME280;4358;42.100;25.222;2023-03-26T06:04:48;99599.81;;;13.69;100.00
8641;BME280;4358;42.100;25.222;2023-03-26T06:07:15;99607.03;;;13.78;100.00
8641;BME280;4358;42.100;25.222;2023-03-26T06:09:42;99599.41;;;13.73;100.00
8641;BME280;4358;42.100;25.222;2023-03-26T06:12:10;99595.19;;;13.71;100.00
8641;BME280;4358;42.100;25.222;2023-03-26T06:14:38;99597.72;;;13.72;100.00
8641;BME280;4358;42.100;25.222;2023-03-26T06:17:07;99622.97;;;13.68;100.00
8641;BME280;4358;42.100;25.222;2023-03-26T06:19:34;99613.88;;;13.71;100.00
8641;BME280;4358;42.100;25.222;2023-03-26T06:22:02;99615.75;;;13.80;100.00
8641;BME280;4358;42.100;25.222;2023-03-26T06:24:29;99610.41;;;13.80;100.00
8641;BME280;4358;42.100;25.222;2023-03-26T06:26:56;99609.63;;;13.89;100.00
8641;BME280;4358;42.100;25.222;2023-03-26T06:29:22;99596.69;;;13.84;100.00
8641;BME280;4358;42.100;25.222;2023-03-26T06:31:51;99602.19;;;13.92;100.00
8641;BME280;4358;42.100;25.222;2023-03-26T06:34:17;99597.91;;;14.01;100.00
8641;BME280;4358;42.100;25.222;2023-03-26T06:36:44;99627.59;;;14.08;100.00
8641;BME280;4358;42.100;25.222;2023-03-26T06:39:13;99614.56;;;14.14;100.00
8641;BME280;4358;42.100;25.222;2023-03-26T06:41:40;99631.63;;;14.23;100.00
8641;BME280;4358;42.100;25.222;2023-03-26T06:44:06;99627.16;;;14.33;100.00
8641;BME280;4358;42.100;25.222;2023-03-26T06:46:33;99624.44;;;14.44;100.00
8641;BME280;4358;42.100;25.222;2023-03-26T06:49:02;99625.03;;;14.57;100.00
8641;BME280;4358;42.100;25.222;2023-03-26T06:51:29;99628.28;;;14.61;100.00
8641;BME280;4358;42.100;25.222;2023-03-26T06:53:55;99633.09;;;14.67;100.00
8641;BME280;4358;42.100;25.222;2023-03-26T06:56:22;99642.13;;;14.75;100.00
8641;BME280;4358;42.100;25.222;2023-03-26T06:58:49;99648.91;;;14.89;100.00
8641;BME280;4358;42.100;25.222;2023-03-26T07:01:16;99642.50;;;15.01;100.00
8641;BME280;4358;42.100;25.222;2023-03-26T07:03:43;99647.00;;;15.10;100.00
8641;BME280;4358;42.100;25.222;2023-03-26T07:06:11;99664.75;;;15.21;100.00
8641;BME280;4358;42.100;25.222;2023-03-26T07:08:38;99677.28;;;15.30;100.00
8641;BME280;4358;42.100;25.222;2023-03-26T07:11:06;99669.28;;;15.40;100.00
8641;BME280;4358;42.100;25.222;2023-03-26T07:13:33;99679.16;;;15.49;100.00
8641;BME280;4358;42.100;25.222;2023-03-26T07:16:01;99665.53;;;15.52;100.00
8641;BME280;4358;42.100;25.222;2023-03-26T07:18:28;99672.72;;;15.61;100.00
8641;BME280;4358;42.100;25.222;2023-03-26T07:20:55;99678.91;;;15.52;100.00
8641;BME280;4358;42.100;25.222;2023-03-26T07:23:24;99676.66;;;15.57;100.00
8641;BME280;4358;42.100;25.222;2023-03-26T07:25:51;99666.13;;;15.75;100.00
8641;BME280;4358;42.100;25.222;2023-03-26T07:28:22;99665.25;;;15.84;100.00
8641;BME280;4358;42.100;25.222;2023-03-26T07:30:58;99686.78;;;15.92;100.00
8641;BME280;4358;42.100;25.222;2023-03-26T07:33:33;99667.34;;;15.99;100.00
8641;BME280;4358;42.100;25.222;2023-03-26T07:36:11;99688.78;;;15.99;100.00
8641;BME280;4358;42.100;25.222;2023-03-26T07:38:54;99641.44;;;16.00;100.00
8641;BME280;4358;42.100;25.222;2023-03-26T07:41:29;99673.09;;;16.24;100.00
8641;BME280;4358;42.100;25.222;2023-03-26T07:44:11;99680.56;;;16.30;100.00
8641;BME280;4358;42.100;25.222;2023-03-26T07:46:46;99661.94;;;16.38;97.88
8641;BME280;4358;42.100;25.222;2023-03-26T07:49:14;99652.88;;;16.39;94.70
8641;BME280;4358;42.100;25.222;2023-03-26T07:51:42;99634.84;;;16.41;94.36
8641;BME280;4358;42.100;25.222;2023-03-26T07:54:11;99625.25;;;16.48;95.17
8641;BME280;4358;42.100;25.222;2023-03-26T07:56:42;99618.16;;;16.57;95.85
8641;BME280;4358;42.100;25.222;2023-03-26T07:59:19;99622.41;;;16.49;96.41
8641;BME280;4358;42.100;25.222;2023-03-26T08:02:01;99611.69;;;16.59;95.54
8641;BME280;4358;42.100;25.222;2023-03-26T08:04:48;99616.16;;;16.68;93.08
8641;BME280;4358;42.100;25.222;2023-03-26T08:07:29;99628.81;;;16.76;93.62
8641;BME280;4358;42.100;25.222;2023-03-26T08:10:04;99611.59;;;16.78;92.07
8641;BME280;4358;42.100;25.222;2023-03-26T08:12:38;99614.75;;;16.91;92.47
8641;BME280;4358;42.100;25.222;2023-03-26T08:15:11;99596.31;;;16.88;89.50
8641;BME280;4358;42.100;25.222;2023-03-26T08:17:45;99611.19;;;17.01;90.67
8641;BME280;4358;42.100;25.222;2023-03-26T08:20:22;99607.88;;;17.07;88.40
8641;BME280;4358;42.100;25.222;2023-03-26T08:22:56;99618.72;;;17.15;89.26
8641;BME280;4358;42.100;25.222;2023-03-26T08:25:32;99601.31;;;17.19;90.70
8641;BME280;4358;42.100;25.222;2023-03-26T08:28:15;99587.84;;;17.28;90.97
8641;BME280;4358;42.100;25.222;2023-03-26T08:30:45;99596.97;;;17.53;91.09
8641;BME280;4358;42.100;25.222;2023-03-26T08:33:15;99599.34;;;17.56;87.84
8641;BME280;4358;42.100;25.222;2023-03-26T08:35:44;99589.94;;;17.52;85.79
8641;BME280;4358;42.100;25.222;2023-03-26T08:38:12;99610.63;;;17.42;85.75
8641;BME280;4358;42.100;25.222;2023-03-26T08:41:01;99581.88;;;17.52;88.30
8641;BME280;4358;42.100;25.222;2023-03-26T08:44:10;99580.56;;;17.56;85.24
8641;BME280;4358;42.100;25.222;2023-03-26T08:47:09;99568.91;;;17.65;86.32
8641;BME280;4358;42.100;25.222;2023-03-26T08:49:57;99585.47;;;17.78;84.27
8641;BME280;4358;42.100;25.222;2023-03-26T08:52:52;99578.41;;;17.77;81.11
8641;BME280;4358;42.100;25.222;2023-03-26T08:55:52;99574.41;;;17.82;83.30
8641;BME280;4358;42.100;25.222;2023-03-26T09:07:43;99561.63;;;18.01;82.73
8641;BME280;4358;42.100;25.222;2023-03-26T09:10:45;99569.50;;;17.95;81.14
8641;BME280;4358;42.100;25.222;2023-03-26T09:13:46;99563.38;;;17.85;82.25
8641;BME280;4358;42.100;25.222;2023-03-26T09:16:43;99564.00;;;18.04;84.41
8641;BME280;4358;42.100;25.222;2023-03-26T09:19:39;99568.66;;;18.28;86.13
8641;BME280;4358;42.100;25.222;2023-03-26T09:25:51;99574.94;;;18.11;80.77
8641;BME280;4358;42.100;25.222;2023-03-26T09:31:59;99557.56;;;18.23;79.32
8641;BME280;4358;42.100;25.222;2023-03-26T09:34:35;99561.34;;;18.38;81.53
8641;BME280;4358;42.100;25.222;2023-03-26T09:37:16;99584.94;;;18.52;80.49
8641;BME280;4358;42.100;25.222;2023-03-26T09:39:55;99576.06;;;18.60;76.23
8641;BME280;4358;42.100;25.222;2023-03-26T09:42:33;99571.59;;;18.43;78.01
8641;BME280;4358;42.100;25.222;2023-03-26T09:45:28;99564.75;;;18.48;77.82
8641;BME280;4358;42.100;25.222;2023-03-26T09:48:24;99548.56;;;18.66;78.59
8641;BME280;4358;42.100;25.222;2023-03-26T09:50:59;99569.22;;;18.74;76.29
8641;BME280;4358;42.100;25.222;2023-03-26T09:53:52;99563.56;;;18.85;75.41
8641;BME280;4358;42.100;25.222;2023-03-26T09:56:30;99549.06;;;18.70;72.00
8641;BME280;4358;42.100;25.222;2023-03-26T09:59:22;99550.09;;;18.77;73.15
8641;BME280;4358;42.100;25.222;2023-03-26T10:01:56;99560.88;;;18.85;67.35
8641;BME280;4358;42.100;25.222;2023-03-26T10:07:55;99541.78;;;19.12;67.09
8641;BME280;4358;42.100;25.222;2023-03-26T10:10:32;99541.81;;;19.20;66.35
8641;BME280;4358;42.100;25.222;2023-03-26T10:13:06;99539.78;;;19.38;66.33
8641;BME280;4358;42.100;25.222;2023-03-26T10:15:45;99526.34;;;19.38;62.79
8641;BME280;4358;42.100;25.222;2023-03-26T10:18:22;99521.13;;;19.37;61.44
8641;BME280;4358;42.100;25.222;2023-03-26T10:21:00;99562.03;;;19.57;60.28
8641;BME280;4358;42.100;25.222;2023-03-26T10:23:45;99522.00;;;19.54;59.38
8641;BME280;4358;42.100;25.222;2023-03-26T10:26:35;99520.31;;;19.44;58.47
8641;BME280;4358;42.100;25.222;2023-03-26T10:29:29;99532.41;;;19.65;57.51
8641;BME280;4358;42.100;25.222;2023-03-26T10:32:12;99531.72;;;19.79;55.49
8641;BME280;4358;42.100;25.222;2023-03-26T10:34:53;99518.94;;;19.81;53.64
8641;BME280;4358;42.100;25.222;2023-03-26T10:37:35;99511.84;;;19.96;53.44
8641;BME280;4358;42.100;25.222;2023-03-26T10:40:16;99506.81;;;19.93;52.39
8641;BME280;4358;42.100;25.222;2023-03-26T10:42:58;99505.59;;;20.04;50.94
8641;BME280;4358;42.100;25.222;2023-03-26T10:45:35;99496.63;;;20.19;49.92
8641;BME280;4358;42.100;25.222;2023-03-26T10:48:29;99491.34;;;20.26;49.89
8641;BME280;4358;42.100;25.222;2023-03-26T10:51:21;99482.22;;;20.43;51.43
8641;BME280;4358;42.100;25.222;2023-03-26T10:53:57;99477.06;;;20.64;50.21
8641;BME280;4358;42.100;25.222;2023-03-26T10:56:28;99483.47;;;20.63;47.53
8641;BME280;4358;42.100;25.222;2023-03-26T10:59:03;99480.69;;;20.49;46.95
8641;BME280;4358;42.100;25.222;2023-03-26T11:01:36;99471.59;;;20.50;44.69
8641;BME280;4358;42.100;25.222;2023-03-26T11:04:14;99462.13;;;20.54;45.91
8641;BME280;4358;42.100;25.222;2023-03-26T11:06:50;99467.03;;;20.50;45.93
8641;BME280;4358;42.100;25.222;2023-03-26T11:09:30;99469.16;;;20.63;45.64
8641;BME280;4358;42.100;25.222;2023-03-26T11:12:07;99444.56;;;20.58;48.99
8641;BME280;4358;42.100;25.222;2023-03-26T11:14:42;99445.16;;;20.76;46.40
8641;BME280;4358;42.100;25.222;2023-03-26T11:17:15;99462.28;;;20.83;44.77
8641;BME280;4358;42.100;25.222;2023-03-26T11:19:50;99431.13;;;20.81;43.12
8641;BME280;4358;42.100;25.222;2023-03-26T11:22:23;99437.38;;;20.81;42.37
8641;BME280;4358;42.100;25.222;2023-03-26T11:25:26;99434.59;;;20.89;41.87
8641;BME280;4358;42.100;25.222;2023-03-26T11:28:07;99434.88;;;20.94;36.65
8641;BME280;4358;42.100;25.222;2023-03-26T11:30:40;99403.38;;;20.95;38.07
8641;BME280;4358;42.100;25.222;2023-03-26T11:33:15;99418.19;;;21.22;38.80
8641;BME280;4358;42.100;25.222;2023-03-26T11:35:46;99415.16;;;21.39;39.05
8641;BME280;4358;42.100;25.222;2023-03-26T11:38:17;99418.41;;;21.35;38.64
8641;BME280;4358;42.100;25.222;2023-03-26T11:40:51;99406.50;;;21.59;40.28
8641;BME280;4358;42.100;25.222;2023-03-26T11:43:23;99403.63;;;21.60;38.20
8641;BME280;4358;42.100;25.222;2023-03-26T11:45:51;99401.03;;;21.67;37.65
8641;BME280;4358;42.100;25.222;2023-03-26T11:48:22;99401.84;;;21.67;38.47
8641;BME280;4358;42.100;25.222;2023-03-26T11:50:55;99401.03;;;21.67;37.69
8641;BME280;4358;42.100;25.222;2023-03-26T11:53:28;99391.88;;;21.68;36.32
8641;BME280;4358;42.100;25.222;2023-03-26T11:56:00;99390.25;;;21.67;37.30
8641;BME280;4358;42.100;25.222;2023-03-26T11:58:31;99383.81;;;21.82;35.59
8641;BME280;4358;42.100;25.222;2023-03-26T12:01:03;99366.28;;;21.78;36.16
8641;BME280;4358;42.100;25.222;2023-03-26T12:03:31;99384.38;;;21.92;36.42
8641;BME280;4358;42.100;25.222;2023-03-26T12:05:58;99371.69;;;21.78;34.61
8641;BME280;4358;42.100;25.222;2023-03-26T12:08:33;99374.94;;;21.88;34.25
8641;BME280;4358;42.100;25.222;2023-03-26T12:11:05;99356.50;;;21.92;36.25
8641;BME280;4358;42.100;25.222;2023-03-26T12:13:38;99355.38;;;21.57;34.40
8641;BME280;4358;42.100;25.222;2023-03-26T12:16:11;99368.16;;;21.63;35.18
8641;BME280;4358;42.100;25.222;2023-03-26T12:18:39;99355.41;;;21.72;34.02
8641;BME280;4358;42.100;25.222;2023-03-26T12:21:10;99377.94;;;21.64;34.41
8641;BME280;4358;42.100;25.222;2023-03-26T12:23:52;99374.75;;;21.46;34.36
8641;BME280;4358;42.100;25.222;2023-03-26T12:26:30;99357.19;;;21.12;36.20
8641;BME280;4358;42.100;25.222;2023-03-26T12:29:06;99365.63;;;21.09;34.33
8641;BME280;4358;42.100;25.222;2023-03-26T12:31:41;99362.75;;;21.34;34.60
8641;BME280;4358;42.100;25.222;2023-03-26T12:34:13;99365.72;;;21.53;34.06
8641;BME280;4358;42.100;25.222;2023-03-26T12:36:47;99351.94;;;21.63;33.73
8641;BME280;4358;42.100;25.222;2023-03-26T12:39:25;99353.59;;;21.93;33.44
8641;BME280;4358;42.100;25.222;2023-03-26T12:41:56;99342.34;;;21.90;33.47
8641;BME280;4358;42.100;25.222;2023-03-26T12:44:27;99351.19;;;21.98;33.71
8641;BME280;4358;42.100;25.222;2023-03-26T12:47:08;99336.47;;;21.86;33.96
8641;BME280;4358;42.100;25.222;2023-03-26T12:49:35;99346.06;;;21.89;34.25
8641;BME280;4358;42.100;25.222;2023-03-26T12:52:24;99344.59;;;22.01;34.75
8641;BME280;4358;42.100;25.222;2023-03-26T12:54:58;99354.94;;;21.98;33.83
8641;BME280;4358;42.100;25.222;2023-03-26T12:57:35;99333.88;;;21.78;32.89
8641;BME280;4358;42.100;25.222;2023-03-26T13:00:18;99341.34;;;21.76;32.29
8641;BME280;4358;42.100;25.222;2023-03-26T13:03:16;99325.00;;;21.84;33.50
8641;BME280;4358;42.100;25.222;2023-03-26T13:06:09;99332.66;;;21.95;33.30
8641;BME280;4358;42.100;25.222;2023-03-26T13:09:02;99329.59;;;21.98;32.00
8641;BME280;4358;42.100;25.222;2023-03-26T13:11:37;99325.69;;;21.86;32.71
8641;BME280;4358;42.100;25.222;2023-03-26T13:14:19;99324.19;;;21.98;33.14
8641;BME280;4358;42.100;25.222;2023-03-26T13:16:54;99320.44;;;22.00;32.60
8641;BME280;4358;42.100;25.222;2023-03-26T13:19:26;99321.28;;;22.00;31.66
8641;BME280;4358;42.100;25.222;2023-03-26T13:22:05;99314.28;;;22.06;31.63
8641;BME280;4358;42.100;25.222;2023-03-26T13:24:41;99317.97;;;21.98;32.68
8641;BME280;4358;42.100;25.222;2023-03-26T13:27:20;99309.53;;;21.93;33.17
8641;BME280;4358;42.100;25.222;2023-03-26T13:29:55;99315.53;;;22.03;33.75
8641;BME280;4358;42.100;25.222;2023-03-26T13:32:31;99324.88;;;22.22;33.21
8641;BME280;4358;42.100;25.222;2023-03-26T13:35:13;99312.25;;;22.08;31.42
8641;BME280;4358;42.100;25.222;2023-03-26T13:37:47;99323.06;;;22.08;31.80
8641;BME280;4358;42.100;25.222;2023-03-26T13:40:23;99318.84;;;22.05;31.34
8641;BME280;4358;42.100;25.222;2023-03-26T13:45:54;99317.25;;;22.11;30.24
8641;BME280;4358;42.100;25.222;2023-03-26T13:48:24;99320.34;;;22.08;31.13
8641;BME280;4358;42.100;25.222;2023-03-26T13:50:58;99318.03;;;22.05;31.25
8641;BME280;4358;42.100;25.222;2023-03-26T13:53:33;99312.63;;;22.05;29.50
8641;BME280;4358;42.100;25.222;2023-03-26T13:56:03;99308.97;;;22.12;31.21
8641;BME280;4358;42.100;25.222;2023-03-26T13:58:34;99309.28;;;22.03;30.87